sensor_id;sensor_type;location;lat;lon;timestamp;temperature;humidity
62424;DHT22;48463;43.604;3.872;2023-08-08T00:00:23;21.60;70.10
62424;DHT22;48463;43.604;3.872;2023-08-08T00:02:48;21.70;69.80
62424;DHT22;48463;43.604;3.872;2023-08-08T00:05:14;21.60;70.10
62424;DHT22;48463;43.604;3.872;2023-08-08T00:07:40;21.40;70.40
62424;DHT22;48463;43.604;3.872;2023-08-08T00:10:06;21.50;71.20
62424;DHT22;48463;43.604;3.872;2023-08-08T00:12:32;21.50;70.20
62424;DHT22;48463;43.604;3.872;2023-08-08T00:14:57;21.60;70.10
62424;DHT22;48463;43.604;3.872;2023-08-08T00:17:23;21.50;70.40
62424;DHT22;48463;43.604;3.872;2023-08-08T00:19:48;21.10;71.00
62424;DHT22;48463;43.604;3.872;2023-08-08T00:22:14;20.80;71.50
62424;DHT22;48463;43.604;3.872;2023-08-08T00:24:40;20.80;71.60
62424;DHT22;48463;43.604;3.872;2023-08-08T00:27:06;20.70;72.00
62424;DHT22;48463;43.604;3.872;2023-08-08T00:29:31;20.50;72.40
62424;DHT22;48463;43.604;3.872;2023-08-08T00:31:57;20.50;72.70
62424;DHT22;48463;43.604;3.872;2023-08-08T00:34:22;20.50;72.80
62424;DHT22;48463;43.604;3.872;2023-08-08T00:36:48;20.70;72.60
62424;DHT22;48463;43.604;3.872;2023-08-08T00:39:14;20.60;72.60
62424;DHT22;48463;43.604;3.872;2023-08-08T00:41:39;20.50;72.90
62424;DHT22;48463;43.604;3.872;2023-08-08T00:44:05;20.40;73.10
62424;DHT22;48463;43.604;3.872;2023-08-08T00:46:31;20.40;73.20
62424;DHT22;48463;43.604;3.872;2023-08-08T00:48:57;20.30;73.20
62424;DHT22;48463;43.604;3.872;2023-08-08T00:51:24;20.30;73.30
62424;DHT22;48463;43.604;3.872;2023-08-08T00:53:50;20.20;73.50
62424;DHT22;48463;43.604;3.872;2023-08-08T00:56:16;20.10;73.50
62424;DHT22;48463;43.604;3.872;2023-08-08T00:58:43;20.20;74.30
62424;DHT22;48463;43.604;3.872;2023-08-08T01:01:11;20.10;73.80
62424;DHT22;48463;43.604;3.872;2023-08-08T01:03:37;20.10;74.00
62424;DHT22;48463;43.604;3.872;2023-08-08T01:06:05;19.90;74.40
62424;DHT22;48463;43.604;3.872;2023-08-08T01:08:56;19.80;74.70
62424;DHT22;48463;43.604;3.872;2023-08-08T01:11:24;19.80;74.60
62424;DHT22;48463;43.604;3.872;2023-08-08T01:13:51;19.80;74.70
62424;DHT22;48463;43.604;3.872;2023-08-08T01:16:19;20.00;74.40
62424;DHT22;48463;43.604;3.872;2023-08-08T01:18:47;20.10;74.10
62424;DHT22;48463;43.604;3.872;2023-08-08T01:21:15;20.20;73.90
62424;DHT22;48463;43.604;3.872;2023-08-08T01:23:56;20.00;74.10
62424;DHT22;48463;43.604;3.872;2023-08-08T01:26:26;19.90;74.40
62424;DHT22;48463;43.604;3.872;2023-08-08T01:28:53;19.90;74.50
62424;DHT22;48463;43.604;3.872;2023-08-08T01:31:20;19.80;74.70
62424;DHT22;48463;43.604;3.872;2023-08-08T01:33:46;19.70;74.80
62424;DHT22;48463;43.604;3.872;2023-08-08T01:36:21;19.80;74.70
62424;DHT22;48463;43.604;3.872;2023-08-08T01:38:49;19.70;74.80
62424;DHT22;48463;43.604;3.872;2023-08-08T01:41:17;19.70;75.00
62424;DHT22;48463;43.604;3.872;2023-08-08T01:43:44;19.60;75.00
62424;DHT22;48463;43.604;3.872;2023-08-08T01:46:11;19.80;75.70
62424;DHT22;48463;43.604;3.872;2023-08-08T01:48:36;19.80;74.90
62424;DHT22;48463;43.604;3.872;2023-08-08T01:51:02;19.60;75.10
62424;DHT22;48463;43.604;3.872;2023-08-08T01:53:28;19.60;74.90
62424;DHT22;48463;43.604;3.872;2023-08-08T01:55:54;19.50;75.10
62424;DHT22;48463;43.604;3.872;2023-08-08T01:58:19;19.40;75.20
62424;DHT22;48463;43.604;3.872;2023-08-08T02:00:45;19.40;75.40
62424;DHT22;48463;43.604;3.872;2023-08-08T02:03:12;19.30;75.50
62424;DHT22;48463;43.604;3.872;2023-08-08T02:05:37;19.40;76.30
62424;DHT22;48463;43.604;3.872;2023-08-08T02:08:03;19.20;75.70
62424;DHT22;48463;43.604;3.872;2023-08-08T02:10:29;19.40;75.70
62424;DHT22;48463;43.604;3.872;2023-08-08T02:12:54;19.30;75.60
62424;DHT22;48463;43.604;3.872;2023-08-08T02:15:20;19.30;75.60
62424;DHT22;48463;43.604;3.872;2023-08-08T02:17:46;19.20;75.80
62424;DHT22;48463;43.604;3.872;2023-08-08T02:20:12;19.10;76.10
62424;DHT22;48463;43.604;3.872;2023-08-08T02:22:38;19.00;76.50
62424;DHT22;48463;43.604;3.872;2023-08-08T02:25:04;19.10;76.30
62424;DHT22;48463;43.604;3.872;2023-08-08T02:27:29;19.00;76.50
62424;DHT22;48463;43.604;3.872;2023-08-08T02:29:55;18.90;76.80
62424;DHT22;48463;43.604;3.872;2023-08-08T02:32:23;18.90;76.80
62424;DHT22;48463;43.604;3.872;2023-08-08T02:34:48;18.80;76.90
62424;DHT22;48463;43.604;3.872;2023-08-08T02:37:14;18.70;77.40
62424;DHT22;48463;43.604;3.872;2023-08-08T02:39:44;18.80;77.30
62424;DHT22;48463;43.604;3.872;2023-08-08T02:42:10;18.90;77.10
62424;DHT22;48463;43.604;3.872;2023-08-08T02:44:35;19.00;76.80
62424;DHT22;48463;43.604;3.872;2023-08-08T02:47:01;18.80;76.90
62424;DHT22;48463;43.604;3.872;2023-08-08T02:49:27;18.70;77.30
62424;DHT22;48463;43.604;3.872;2023-08-08T02:51:52;18.60;77.50
62424;DHT22;48463;43.604;3.872;2023-08-08T02:54:18;18.60;77.60
62424;DHT22;48463;43.604;3.872;2023-08-08T02:56:43;18.40;78.00
62424;DHT22;48463;43.604;3.872;2023-08-08T02:59:09;18.50;77.80
62424;DHT22;48463;43.604;3.872;2023-08-08T03:01:35;18.40;78.20
62424;DHT22;48463;43.604;3.872;2023-08-08T03:04:05;18.40;78.40
62424;DHT22;48463;43.604;3.872;2023-08-08T03:06:31;18.60;78.00
62424;DHT22;48463;43.604;3.872;2023-08-08T03:08:56;18.50;77.80
62424;DHT22;48463;43.604;3.872;2023-08-08T03:11:22;18.70;77.80
62424;DHT22;48463;43.604;3.872;2023-08-08T03:13:48;18.80;77.60
62424;DHT22;48463;43.604;3.872;2023-08-08T03:16:13;18.70;77.80
62424;DHT22;48463;43.604;3.872;2023-08-08T03:18:39;18.70;77.90
62424;DHT22;48463;43.604;3.872;2023-08-08T03:21:04;18.60;78.30
62424;DHT22;48463;43.604;3.872;2023-08-08T03:23:30;18.70;78.10
62424;DHT22;48463;43.604;3.872;2023-08-08T03:25:56;18.60;78.20
62424;DHT22;48463;43.604;3.872;2023-08-08T03:28:21;18.60;78.60
62424;DHT22;48463;43.604;3.872;2023-08-08T03:30:47;18.50;78.90
62424;DHT22;48463;43.604;3.872;2023-08-08T03:33:13;18.50;79.10
62424;DHT22;48463;43.604;3.872;2023-08-08T03:35:38;18.30;79.20
62424;DHT22;48463;43.604;3.872;2023-08-08T03:38:04;18.40;79.30
62424;DHT22;48463;43.604;3.872;2023-08-08T03:40:30;18.40;79.40
62424;DHT22;48463;43.604;3.872;2023-08-08T03:42:56;18.30;79.20
62424;DHT22;48463;43.604;3.872;2023-08-08T03:45:21;18.20;79.50
62424;DHT22;48463;43.604;3.872;2023-08-08T03:47:47;18.20;79.40
62424;DHT22;48463;43.604;3.872;2023-08-08T03:50:12;18.20;79.60
62424;DHT22;48463;43.604;3.872;2023-08-08T03:52:38;18.10;79.80
62424;DHT22;48463;43.604;3.872;2023-08-08T03:55:04;18.10;80.10
62424;DHT22;48463;43.604;3.872;2023-08-08T03:57:31;18.10;80.20
62424;DHT22;48463;43.604;3.872;2023-08-08T03:59:56;18.20;80.30
62424;DHT22;48463;43.604;3.872;2023-08-08T04:02:22;18.10;80.10
62424;DHT22;48463;43.604;3.872;2023-08-08T04:04:48;18.20;80.20
62424;DHT22;48463;43.604;3.872;2023-08-08T04:07:13;18.00;80.40
62424;DHT22;48463;43.604;3.872;2023-08-08T04:09:39;18.00;80.60
62424;DHT22;48463;43.604;3.872;2023-08-08T04:12:05;17.90;80.90
62424;DHT22;48463;43.604;3.872;2023-08-08T04:14:30;17.90;81.10
62424;DHT22;48463;43.604;3.872;2023-08-08T04:16:56;17.90;81.10
62424;DHT22;48463;43.604;3.872;2023-08-08T04:19:21;17.80;81.60
62424;DHT22;48463;43.604;3.872;2023-08-08T04:21:48;17.70;81.90
62424;DHT22;48463;43.604;3.872;2023-08-08T04:24:14;17.70;82.10
62424;DHT22;48463;43.604;3.872;2023-08-08T04:26:39;17.70;82.20
62424;DHT22;48463;43.604;3.872;2023-08-08T04:29:05;17.80;82.00
62424;DHT22;48463;43.604;3.872;2023-08-08T04:31:31;18.00;81.80
62424;DHT22;48463;43.604;3.872;2023-08-08T04:33:57;18.00;81.90
62424;DHT22;48463;43.604;3.872;2023-08-08T04:36:29;18.10;81.90
62424;DHT22;48463;43.604;3.872;2023-08-08T04:38:55;18.00;81.90
62424;DHT22;48463;43.604;3.872;2023-08-08T04:41:20;18.00;82.30
62424;DHT22;48463;43.604;3.872;2023-08-08T04:43:46;17.80;82.60
62424;DHT22;48463;43.604;3.872;2023-08-08T04:46:12;17.90;82.80
62424;DHT22;48463;43.604;3.872;2023-08-08T04:48:38;17.90;82.80
62424;DHT22;48463;43.604;3.872;2023-08-08T04:51:07;17.90;82.70
62424;DHT22;48463;43.604;3.872;2023-08-08T04:53:33;18.10;82.70
62424;DHT22;48463;43.604;3.872;2023-08-08T04:55:59;18.10;82.50
62424;DHT22;48463;43.604;3.872;2023-08-08T04:58:24;17.90;82.80
62424;DHT22;48463;43.604;3.872;2023-08-08T05:00:50;17.80;83.20
62424;DHT22;48463;43.604;3.872;2023-08-08T05:03:17;17.90;83.20
62424;DHT22;48463;43.604;3.872;2023-08-08T05:05:42;17.90;83.30
62424;DHT22;48463;43.604;3.872;2023-08-08T05:08:11;18.00;83.20
62424;DHT22;48463;43.604;3.872;2023-08-08T05:10:36;17.90;83.20
62424;DHT22;48463;43.604;3.872;2023-08-08T05:13:02;17.90;83.40
62424;DHT22;48463;43.604;3.872;2023-08-08T05:15:28;17.90;83.50
62424;DHT22;48463;43.604;3.872;2023-08-08T05:17:54;17.90;83.60
62424;DHT22;48463;43.604;3.872;2023-08-08T05:20:20;18.00;83.60
62424;DHT22;48463;43.604;3.872;2023-08-08T05:22:47;18.00;83.40
62424;DHT22;48463;43.604;3.872;2023-08-08T05:25:12;18.00;83.30
62424;DHT22;48463;43.604;3.872;2023-08-08T05:27:38;18.00;83.50
62424;DHT22;48463;43.604;3.872;2023-08-08T05:30:05;18.10;83.50
62424;DHT22;48463;43.604;3.872;2023-08-08T05:32:30;18.00;83.50
62424;DHT22;48463;43.604;3.872;2023-08-08T05:34:57;18.10;83.40
62424;DHT22;48463;43.604;3.872;2023-08-08T05:37:23;18.00;83.40
62424;DHT22;48463;43.604;3.872;2023-08-08T05:39:49;18.10;83.30
62424;DHT22;48463;43.604;3.872;2023-08-08T05:42:15;18.10;83.10
62424;DHT22;48463;43.604;3.872;2023-08-08T05:44:40;18.20;83.20
62424;DHT22;48463;43.604;3.872;2023-08-08T05:47:09;18.30;83.20
62424;DHT22;48463;43.604;3.872;2023-08-08T05:49:35;18.30;83.00
62424;DHT22;48463;43.604;3.872;2023-08-08T05:52:01;18.40;82.90
62424;DHT22;48463;43.604;3.872;2023-08-08T05:54:27;18.50;82.80
62424;DHT22;48463;43.604;3.872;2023-08-08T05:56:53;18.50;83.00
62424;DHT22;48463;43.604;3.872;2023-08-08T05:59:19;18.50;82.90
62424;DHT22;48463;43.604;3.872;2023-08-08T06:01:45;18.40;83.00
62424;DHT22;48463;43.604;3.872;2023-08-08T06:04:12;18.50;83.30
62424;DHT22;48463;43.604;3.872;2023-08-08T06:06:37;18.70;82.90
62424;DHT22;48463;43.604;3.872;2023-08-08T06:09:03;18.70;82.80
62424;DHT22;48463;43.604;3.872;2023-08-08T06:11:29;18.80;82.80
62424;DHT22;48463;43.604;3.872;2023-08-08T06:13:55;19.00;82.60
62424;DHT22;48463;43.604;3.872;2023-08-08T06:16:21;19.10;82.40
62424;DHT22;48463;43.604;3.872;2023-08-08T06:18:47;19.10;81.70
62424;DHT22;48463;43.604;3.872;2023-08-08T06:21:12;19.30;81.80
62424;DHT22;48463;43.604;3.872;2023-08-08T06:23:38;19.30;81.50
62424;DHT22;48463;43.604;3.872;2023-08-08T06:26:04;19.50;81.40
62424;DHT22;48463;43.604;3.872;2023-08-08T06:28:30;19.60;81.40
62424;DHT22;48463;43.604;3.872;2023-08-08T06:30:58;19.80;80.90
62424;DHT22;48463;43.604;3.872;2023-08-08T06:33:24;19.90;80.70
62424;DHT22;48463;43.604;3.872;2023-08-08T06:35:49;20.10;80.10
62424;DHT22;48463;43.604;3.872;2023-08-08T06:38:15;20.10;80.20
62424;DHT22;48463;43.604;3.872;2023-08-08T06:40:41;20.20;80.20
62424;DHT22;48463;43.604;3.872;2023-08-08T06:43:07;20.20;80.20
62424;DHT22;48463;43.604;3.872;2023-08-08T06:45:32;20.40;79.90
62424;DHT22;48463;43.604;3.872;2023-08-08T06:47:58;20.50;79.60
62424;DHT22;48463;43.604;3.872;2023-08-08T06:50:24;20.50;79.70
62424;DHT22;48463;43.604;3.872;2023-08-08T06:52:50;20.70;79.50
62424;DHT22;48463;43.604;3.872;2023-08-08T06:55:16;20.70;79.30
62424;DHT22;48463;43.604;3.872;2023-08-08T06:57:42;20.80;79.10
62424;DHT22;48463;43.604;3.872;2023-08-08T07:00:09;20.80;79.00
62424;DHT22;48463;43.604;3.872;2023-08-08T07:02:48;20.90;78.80
62424;DHT22;48463;43.604;3.872;2023-08-08T07:05:17;21.10;78.60
62424;DHT22;48463;43.604;3.872;2023-08-08T07:07:43;21.30;78.20
62424;DHT22;48463;43.604;3.872;2023-08-08T07:10:10;21.30;78.00
62424;DHT22;48463;43.604;3.872;2023-08-08T07:12:38;21.40;77.60
62424;DHT22;48463;43.604;3.872;2023-08-08T07:15:06;21.50;77.60
62424;DHT22;48463;43.604;3.872;2023-08-08T07:17:32;21.60;77.30
62424;DHT22;48463;43.604;3.872;2023-08-08T07:19:58;21.70;77.10
62424;DHT22;48463;43.604;3.872;2023-08-08T07:22:24;21.80;76.70
62424;DHT22;48463;43.604;3.872;2023-08-08T07:24:50;21.70;76.60
62424;DHT22;48463;43.604;3.872;2023-08-08T07:27:16;21.90;76.70
62424;DHT22;48463;43.604;3.872;2023-08-08T07:29:42;22.00;76.10
62424;DHT22;48463;43.604;3.872;2023-08-08T07:32:09;22.20;75.90
62424;DHT22;48463;43.604;3.872;2023-08-08T07:34:35;22.30;75.90
62424;DHT22;48463;43.604;3.872;2023-08-08T07:37:01;22.40;75.30
62424;DHT22;48463;43.604;3.872;2023-08-08T07:39:28;22.50;75.40
62424;DHT22;48463;43.604;3.872;2023-08-08T07:41:54;22.60;75.60
62424;DHT22;48463;43.604;3.872;2023-08-08T07:44:20;22.80;76.00
62424;DHT22;48463;43.604;3.872;2023-08-08T07:46:46;22.90;75.70
62424;DHT22;48463;43.604;3.872;2023-08-08T07:49:12;23.10;74.80
62424;DHT22;48463;43.604;3.872;2023-08-08T07:51:38;23.20;73.80
62424;DHT22;48463;43.604;3.872;2023-08-08T07:54:04;23.40;72.50
62424;DHT22;48463;43.604;3.872;2023-08-08T07:56:34;23.30;72.30
62424;DHT22;48463;43.604;3.872;2023-08-08T07:59:00;23.30;72.10
62424;DHT22;48463;43.604;3.872;2023-08-08T08:01:28;23.40;71.80
62424;DHT22;48463;43.604;3.872;2023-08-08T08:03:54;23.50;71.70
62424;DHT22;48463;43.604;3.872;2023-08-08T08:06:20;23.50;70.70
62424;DHT22;48463;43.604;3.872;2023-08-08T08:08:46;23.70;70.50
62424;DHT22;48463;43.604;3.872;2023-08-08T08:11:11;23.90;70.10
62424;DHT22;48463;43.604;3.872;2023-08-08T08:13:39;23.80;69.80
62424;DHT22;48463;43.604;3.872;2023-08-08T08:16:04;23.70;70.00
62424;DHT22;48463;43.604;3.872;2023-08-08T08:18:31;23.70;70.70
62424;DHT22;48463;43.604;3.872;2023-08-08T08:20:58;23.80;69.80
62424;DHT22;48463;43.604;3.872;2023-08-08T08:23:27;24.00;69.60
62424;DHT22;48463;43.604;3.872;2023-08-08T08:25:53;24.10;69.20
62424;DHT22;48463;43.604;3.872;2023-08-08T08:28:19;24.20;68.50
62424;DHT22;48463;43.604;3.872;2023-08-08T08:30:45;24.30;67.40
62424;DHT22;48463;43.604;3.872;2023-08-08T08:33:11;24.40;67.00
62424;DHT22;48463;43.604;3.872;2023-08-08T08:35:37;24.60;66.60
62424;DHT22;48463;43.604;3.872;2023-08-08T08:38:04;24.70;66.30
62424;DHT22;48463;43.604;3.872;2023-08-08T08:40:41;24.70;66.00
62424;DHT22;48463;43.604;3.872;2023-08-08T08:43:11;24.70;65.70
62424;DHT22;48463;43.604;3.872;2023-08-08T08:45:38;24.70;65.80
62424;DHT22;48463;43.604;3.872;2023-08-08T08:48:09;24.90;65.70
62424;DHT22;48463;43.604;3.872;2023-08-08T08:50:36;25.10;65.60
62424;DHT22;48463;43.604;3.872;2023-08-08T08:53:03;25.30;65.80
62424;DHT22;48463;43.604;3.872;2023-08-08T08:55:30;25.40;65.10
62424;DHT22;48463;43.604;3.872;2023-08-08T08:57:56;25.50;65.10
62424;DHT22;48463;43.604;3.872;2023-08-08T09:00:21;25.50;64.50
62424;DHT22;48463;43.604;3.872;2023-08-08T09:02:48;25.30;64.40
62424;DHT22;48463;43.604;3.872;2023-08-08T09:05:15;25.10;64.30
62424;DHT22;48463;43.604;3.872;2023-08-08T09:07:43;25.20;64.50
62424;DHT22;48463;43.604;3.872;2023-08-08T09:10:11;25.20;64.30
62424;DHT22;48463;43.604;3.872;2023-08-08T09:12:37;25.40;64.40
62424;DHT22;48463;43.604;3.872;2023-08-08T09:15:02;25.70;63.80
62424;DHT22;48463;43.604;3.872;2023-08-08T09:17:30;25.80;63.20
62424;DHT22;48463;43.604;3.872;2023-08-08T09:19:56;25.80;62.80
62424;DHT22;48463;43.604;3.872;2023-08-08T09:22:24;25.50;62.30
62424;DHT22;48463;43.604;3.872;2023-08-08T09:24:50;25.60;62.90
62424;DHT22;48463;43.604;3.872;2023-08-08T09:27:16;25.90;62.50
62424;DHT22;48463;43.604;3.872;2023-08-08T09:29:42;25.80;62.20
62424;DHT22;48463;43.604;3.872;2023-08-08T09:32:08;25.90;62.50
62424;DHT22;48463;43.604;3.872;2023-08-08T09:34:35;25.90;62.20
62424;DHT22;48463;43.604;3.872;2023-08-08T09:37:00;26.00;62.50
62424;DHT22;48463;43.604;3.872;2023-08-08T09:39:28;26.10;62.00
62424;DHT22;48463;43.604;3.872;2023-08-08T09:41:58;26.10;61.90
62424;DHT22;48463;43.604;3.872;2023-08-08T09:44:26;26.10;61.60
62424;DHT22;48463;43.604;3.872;2023-08-08T09:46:54;26.10;61.50
62424;DHT22;48463;43.604;3.872;2023-08-08T09:49:21;25.90;61.50
62424;DHT22;48463;43.604;3.872;2023-08-08T09:51:48;25.80;61.50
62424;DHT22;48463;43.604;3.872;2023-08-08T09:54:15;26.00;61.70
62424;DHT22;48463;43.604;3.872;2023-08-08T09:56:41;26.20;61.50
62424;DHT22;48463;43.604;3.872;2023-08-08T09:59:07;26.20;61.30
62424;DHT22;48463;43.604;3.872;2023-08-08T10:01:34;26.30;61.50
62424;DHT22;48463;43.604;3.872;2023-08-08T10:04:01;26.50;61.60
62424;DHT22;48463;43.604;3.872;2023-08-08T10:06:28;26.50;61.00
62424;DHT22;48463;43.604;3.872;2023-08-08T10:08:55;26.30;61.10
62424;DHT22;48463;43.604;3.872;2023-08-08T10:11:22;26.60;61.10
62424;DHT22;48463;43.604;3.872;2023-08-08T10:13:50;26.50;60.90
62424;DHT22;48463;43.604;3.872;2023-08-08T10:16:17;26.40;60.90
62424;DHT22;48463;43.604;3.872;2023-08-08T10:19:05;26.40;61.00
62424;DHT22;48463;43.604;3.872;2023-08-08T10:21:35;26.50;60.70
62424;DHT22;48463;43.604;3.872;2023-08-08T10:24:04;26.60;60.70
62424;DHT22;48463;43.604;3.872;2023-08-08T10:26:32;26.70;60.80
62424;DHT22;48463;43.604;3.872;2023-08-08T10:28:59;27.00;61.40
62424;DHT22;48463;43.604;3.872;2023-08-08T10:31:25;27.20;61.10
62424;DHT22;48463;43.604;3.872;2023-08-08T10:34:02;27.30;60.00
62424;DHT22;48463;43.604;3.872;2023-08-08T10:36:43;27.10;60.00
62424;DHT22;48463;43.604;3.872;2023-08-08T10:39:18;27.20;60.10
62424;DHT22;48463;43.604;3.872;2023-08-08T10:41:46;27.20;59.80
62424;DHT22;48463;43.604;3.872;2023-08-08T10:44:13;27.20;59.70
62424;DHT22;48463;43.604;3.872;2023-08-08T10:46:55;27.10;59.60
62424;DHT22;48463;43.604;3.872;2023-08-08T10:49:21;27.00;60.20
62424;DHT22;48463;43.604;3.872;2023-08-08T10:51:48;27.30;59.50
62424;DHT22;48463;43.604;3.872;2023-08-08T10:54:23;27.50;59.80
62424;DHT22;48463;43.604;3.872;2023-08-08T10:56:57;27.60;59.30
62424;DHT22;48463;43.604;3.872;2023-08-08T10:59:27;27.60;59.10
62424;DHT22;48463;43.604;3.872;2023-08-08T11:01:55;27.30;58.90
62424;DHT22;48463;43.604;3.872;2023-08-08T11:04:23;27.40;58.90
62424;DHT22;48463;43.604;3.872;2023-08-08T11:06:50;27.50;59.00
62424;DHT22;48463;43.604;3.872;2023-08-08T11:09:21;27.40;58.90
62424;DHT22;48463;43.604;3.872;2023-08-08T11:11:57;27.80;59.10
62424;DHT22;48463;43.604;3.872;2023-08-08T11:14:23;27.80;58.60
62424;DHT22;48463;43.604;3.872;2023-08-08T11:16:51;27.90;58.80
62424;DHT22;48463;43.604;3.872;2023-08-08T11:19:17;27.90;58.90
62424;DHT22;48463;43.604;3.872;2023-08-08T11:21:45;28.00;58.80
62424;DHT22;48463;43.604;3.872;2023-08-08T11:24:12;28.10;58.70
62424;DHT22;48463;43.604;3.872;2023-08-08T11:26:40;28.20;58.40
62424;DHT22;48463;43.604;3.872;2023-08-08T11:29:06;28.30;58.20
62424;DHT22;48463;43.604;3.872;2023-08-08T11:31:34;28.40;58.60
62424;DHT22;48463;43.604;3.872;2023-08-08T11:34:00;28.30;58.30
62424;DHT22;48463;43.604;3.872;2023-08-08T11:36:29;28.40;58.00
62424;DHT22;48463;43.604;3.872;2023-08-08T11:38:57;28.70;57.70
62424;DHT22;48463;43.604;3.872;2023-08-08T11:41:24;28.50;57.90
62424;DHT22;48463;43.604;3.872;2023-08-08T11:43:52;28.50;58.50
62424;DHT22;48463;43.604;3.872;2023-08-08T11:46:22;28.20;60.80
62424;DHT22;48463;43.604;3.872;2023-08-08T11:48:48;28.30;61.70
62424;DHT22;48463;43.604;3.872;2023-08-08T11:51:15;28.60;61.70
62424;DHT22;48463;43.604;3.872;2023-08-08T11:53:53;28.90;61.90
62424;DHT22;48463;43.604;3.872;2023-08-08T11:56:22;28.70;62.10
62424;DHT22;48463;43.604;3.872;2023-08-08T11:58:50;28.30;62.00
62424;DHT22;48463;43.604;3.872;2023-08-08T12:01:21;28.40;61.50
62424;DHT22;48463;43.604;3.872;2023-08-08T12:03:47;28.60;61.10
62424;DHT22;48463;43.604;3.872;2023-08-08T12:06:14;28.40;60.70
62424;DHT22;48463;43.604;3.872;2023-08-08T12:08:45;28.40;60.90
62424;DHT22;48463;43.604;3.872;2023-08-08T12:11:13;28.70;60.80
62424;DHT22;48463;43.604;3.872;2023-08-08T12:13:41;28.80;60.50
62424;DHT22;48463;43.604;3.872;2023-08-08T12:16:12;28.80;61.20
62424;DHT22;48463;43.604;3.872;2023-08-08T12:18:39;28.80;61.10
62424;DHT22;48463;43.604;3.872;2023-08-08T12:21:06;28.80;60.90
62424;DHT22;48463;43.604;3.872;2023-08-08T12:23:32;29.00;60.60
62424;DHT22;48463;43.604;3.872;2023-08-08T12:25:59;28.90;60.70
62424;DHT22;48463;43.604;3.872;2023-08-08T12:28:26;28.90;60.70
62424;DHT22;48463;43.604;3.872;2023-08-08T12:30:51;28.80;60.40
62424;DHT22;48463;43.604;3.872;2023-08-08T12:33:17;28.70;60.70
62424;DHT22;48463;43.604;3.872;2023-08-08T12:35:43;28.60;60.80
62424;DHT22;48463;43.604;3.872;2023-08-08T12:38:09;28.70;60.50
62424;DHT22;48463;43.604;3.872;2023-08-08T12:40:35;28.90;60.90
62424;DHT22;48463;43.604;3.872;2023-08-08T12:43:01;28.90;61.50
62424;DHT22;48463;43.604;3.872;2023-08-08T12:45:27;28.90;61.30
62424;DHT22;48463;43.604;3.872;2023-08-08T12:47:53;29.00;60.60
62424;DHT22;48463;43.604;3.872;2023-08-08T12:50:18;28.90;60.80
62424;DHT22;48463;43.604;3.872;2023-08-08T12:52:44;29.10;60.80
62424;DHT22;48463;43.604;3.872;2023-08-08T12:55:10;29.20;61.70
62424;DHT22;48463;43.604;3.872;2023-08-08T12:57:37;29.00;61.10
62424;DHT22;48463;43.604;3.872;2023-08-08T13:00:04;29.10;60.60
62424;DHT22;48463;43.604;3.872;2023-08-08T13:02:32;28.60;61.30
62424;DHT22;48463;43.604;3.872;2023-08-08T13:04:59;28.60;61.40
62424;DHT22;48463;43.604;3.872;2023-08-08T13:07:25;28.80;61.20
62424;DHT22;48463;43.604;3.872;2023-08-08T13:09:51;28.60;61.30
62424;DHT22;48463;43.604;3.872;2023-08-08T13:12:17;28.90;61.60
62424;DHT22;48463;43.604;3.872;2023-08-08T13:14:42;28.70;61.30
62424;DHT22;48463;43.604;3.872;2023-08-08T13:17:08;28.20;61.40
62424;DHT22;48463;43.604;3.872;2023-08-08T13:19:35;28.60;61.80
62424;DHT22;48463;43.604;3.872;2023-08-08T13:22:01;28.70;61.10
62424;DHT22;48463;43.604;3.872;2023-08-08T13:24:27;28.40;61.40
62424;DHT22;48463;43.604;3.872;2023-08-08T13:26:52;28.50;61.30
62424;DHT22;48463;43.604;3.872;2023-08-08T13:29:18;28.50;61.50
62424;DHT22;48463;43.604;3.872;2023-08-08T13:31:43;28.50;61.60
62424;DHT22;48463;43.604;3.872;2023-08-08T13:34:10;28.60;61.50
62424;DHT22;48463;43.604;3.872;2023-08-08T13:36:36;29.00;61.80
62424;DHT22;48463;43.604;3.872;2023-08-08T13:39:02;29.40;61.00
62424;DHT22;48463;43.604;3.872;2023-08-08T13:41:28;29.40;60.80
62424;DHT22;48463;43.604;3.872;2023-08-08T13:43:54;29.30;60.60
62424;DHT22;48463;43.604;3.872;2023-08-08T13:46:20;29.60;60.60
62424;DHT22;48463;43.604;3.872;2023-08-08T13:48:45;29.40;60.60
62424;DHT22;48463;43.604;3.872;2023-08-08T13:51:12;29.80;60.70
62424;DHT22;48463;43.604;3.872;2023-08-08T13:53:38;29.90;60.60
62424;DHT22;48463;43.604;3.872;2023-08-08T13:56:04;29.90;60.60
62424;DHT22;48463;43.604;3.872;2023-08-08T13:58:30;30.00;60.80
62424;DHT22;48463;43.604;3.872;2023-08-08T14:00:56;30.10;60.50
62424;DHT22;48463;43.604;3.872;2023-08-08T14:03:23;29.70;60.20
62424;DHT22;48463;43.604;3.872;2023-08-08T14:05:50;29.90;60.40
62424;DHT22;48463;43.604;3.872;2023-08-08T14:08:18;30.30;60.70
62424;DHT22;48463;43.604;3.872;2023-08-08T14:10:44;30.80;60.40
62424;DHT22;48463;43.604;3.872;2023-08-08T14:13:10;31.10;60.20
62424;DHT22;48463;43.604;3.872;2023-08-08T14:15:37;30.80;59.80
62424;DHT22;48463;43.604;3.872;2023-08-08T14:18:03;30.80;59.50
62424;DHT22;48463;43.604;3.872;2023-08-08T14:20:30;30.40;59.70
62424;DHT22;48463;43.604;3.872;2023-08-08T14:22:55;30.50;60.20
62424;DHT22;48463;43.604;3.872;2023-08-08T14:25:22;30.50;60.30
62424;DHT22;48463;43.604;3.872;2023-08-08T14:27:47;30.70;60.50
62424;DHT22;48463;43.604;3.872;2023-08-08T14:30:13;30.50;60.30
62424;DHT22;48463;43.604;3.872;2023-08-08T14:32:48;30.50;60.10
62424;DHT22;48463;43.604;3.872;2023-08-08T14:35:44;30.20;60.70
62424;DHT22;48463;43.604;3.872;2023-08-08T14:38:11;30.60;60.00
62424;DHT22;48463;43.604;3.872;2023-08-08T14:40:37;30.80;60.20
62424;DHT22;48463;43.604;3.872;2023-08-08T14:43:04;30.40;59.90
62424;DHT22;48463;43.604;3.872;2023-08-08T14:45:37;30.50;60.60
62424;DHT22;48463;43.604;3.872;2023-08-08T14:48:04;30.80;60.00
62424;DHT22;48463;43.604;3.872;2023-08-08T14:50:31;31.00;59.90
62424;DHT22;48463;43.604;3.872;2023-08-08T14:52:57;30.90;60.10
62424;DHT22;48463;43.604;3.872;2023-08-08T14:55:23;31.20;59.70
62424;DHT22;48463;43.604;3.872;2023-08-08T14:57:49;31.30;59.50
62424;DHT22;48463;43.604;3.872;2023-08-08T15:00:14;31.00;58.90
62424;DHT22;48463;43.604;3.872;2023-08-08T15:02:40;32.00;58.80
62424;DHT22;48463;43.604;3.872;2023-08-08T15:05:06;35.10;58.00
62424;DHT22;48463;43.604;3.872;2023-08-08T15:07:32;34.50;55.90
62424;DHT22;48463;43.604;3.872;2023-08-08T15:09:57;37.40;55.20
62424;DHT22;48463;43.604;3.872;2023-08-08T15:12:23;38.60;54.60
62424;DHT22;48463;43.604;3.872;2023-08-08T15:14:49;38.50;54.00
62424;DHT22;48463;43.604;3.872;2023-08-08T15:17:16;38.00;52.60
62424;DHT22;48463;43.604;3.872;2023-08-08T15:19:42;37.40;53.60
62424;DHT22;48463;43.604;3.872;2023-08-08T15:22:07;36.50;54.60
62424;DHT22;48463;43.604;3.872;2023-08-08T15:24:33;35.50;54.80
62424;DHT22;48463;43.604;3.872;2023-08-08T15:27:02;33.10;56.20